x

Destruction Island, Wa (desw1) Weather Station

8:00pm - Wed 16th Aug 2017 All times are PDT. -7 hours from GMT.

  • Wind
    13mph, 14mph gusts
  • 空気 Temp 56°f
  • Sea Pressure 1020.6mb
  • Destruction Island, Wa
  • Destruction Island, Wa

More Historic Weather Station data

Upgrade to MSW Pro to gain access to the past 30 days of data for over 8000 Wavebouys and Weather Stations around the globe.

Join

Comparision Forecast

View Surf forecast
   
Wed 08/16 8:00pm 13 14 mph 1020.6mb 56f
7:00pm 9 9 mph 1020.6mb 57f
6:00pm 13 14 mph 1020.6mb 57f
5:00pm 9 9 mph 1020.8mb 60f
4:00pm 6 7 mph 1020.9mb 62f
3:00pm 5 6 mph 1021mb 64f
2:00pm 2 2 mph 1021.2mb 62f
1:00pm 3 3 mph 1021.1mb 61f
12:00pm 2 2 mph 1020.9mb 59f
11:00am 3 3 mph 1020.8mb 59f
10:00am 3 3 mph 1020.5mb 57f
9:00am 7 7 mph 1020.5mb 57f
8:00am 10 11 mph 1020.2mb 56f
7:00am 11 13 mph 1019.8mb 56f
6:00am 14 14 mph 1019.2mb 56f
5:00am 15 15 mph 1019mb 56f
4:00am 13 14 mph 1019mb 56f
3:00am 11 11 mph 1018.8mb 56f
2:00am 13 14 mph 1018.6mb 57f
1:00am 10 11 mph 1018.5mb 56f
12:00am 13 13 mph 1018.5mb 56f
Tue 08/15 11:00pm 13 14 mph 1018.5mb 56f
10:00pm 14 14 mph 1018.1mb 57f
9:00pm 20 21 mph 1017.7mb 57f
8:00pm 22 23 mph 1017.2mb 57f
7:00pm 21 22 mph 1017.1mb 57f
6:00pm 22 24 mph 1016.9mb 57f
5:00pm 21 23 mph 1016.9mb 58f
4:00pm 20 22 mph 1016.9mb 58f
3:00pm 20 22 mph 1017mb 59f
2:00pm 16 17 mph 1016.6mb 59f
1:00pm 14 15 mph 1016.7mb 58f
12:00pm 16 17 mph 1016.5mb 58f
11:00am 11 14 mph 1016.3mb 57f
10:00am 8 9 mph 1016mb 56f
9:00am 13 14 mph 1015.8mb 55f
8:00am 10 11 mph 1015mb 54f
7:00am 13 14 mph 1015mb 54f
6:00am 16 17 mph 1014.7mb 54f
5:00am 14 14 mph 1014.4mb 55f
4:00am 11 11 mph 1014mb 55f
3:00am 13 13 mph 1014.4mb 55f
2:00am 13 13 mph 1014.3mb 55f
1:00am 14 14 mph 1014.4mb 55f
12:00am 13 14 mph 1014.2mb 55f
Mon 08/14 11:00pm 13 14 mph 1014.2mb 55f
10:00pm 17 17 mph 1014.5mb 55f
9:00pm 17 20 mph 1014.6mb 56f
8:00pm 15 17 mph 1014.7mb 56f
7:00pm 14 16 mph 1014.9mb 57f
6:00pm 15 16 mph 1015.1mb 58f
4:00pm 16 16 mph 1015.7mb 58f
3:00pm 11 13 mph 1016.3mb 60f
2:00pm 6 9 mph 1016.8mb 61f
1:00pm 5 6 mph 1017.1mb 59f
12:00pm 2 3 mph 1017.5mb 59f
11:00am  -  0 mph 1017.4mb 57f
10:00am 1 2 mph 1017.4mb 56f
9:00am 1 2 mph 1017.5mb 54f
8:00am 6 6 mph 1017.3mb 53f
7:00am 5 5 mph 1017.3mb 52f
6:00am 3 3 mph 1017.2mb 53f
5:00am 5 5 mph 1017.2mb 53f
4:00am 3 3 mph 1017.8mb 53f
3:00am 3 3 mph 1018.1mb 54f
2:00am 1 2 mph 1018mb 54f
1:00am 6 6 mph 1018.2mb 55f
12:00am 7 7 mph 1018.5mb 55f
Sun 08/13 11:00pm 9 9 mph 1018.8mb 56f
10:00pm 10 10 mph 1018.7mb 57f
9:00pm 13 14 mph 1018.6mb 57f
8:00pm 13 14 mph 1018.5mb 57f
7:00pm 14 15 mph 1018.4mb 58f
6:00pm 11 13 mph 1018.7mb 58f
5:00pm 7 8 mph 1018.9mb 58f
4:00pm 9 9 mph 1018.7mb 58f
3:00pm 11 13 mph 1018.7mb 59f
2:00pm 10 10 mph 1018.6mb 59f
1:00pm 11 14 mph 1018.2mb 59f
12:00pm 10 11 mph 1018.1mb 58f
11:00am 9 10 mph 1017.5mb 60f
10:00am 3 3 mph 1016.9mb 57f
9:00am 6 6 mph 1016.2mb 56f
8:00am 8 8 mph 1015.6mb 56f
7:00am 8 8 mph 1015.1mb 56f
6:00am 10 11 mph 1014.7mb 56f
5:00am 14 15 mph 1014mb 56f